Sim-Planet VA

Sim-Planet Nouvel Horizon. By: Anthony Pay
Since 2020.




 METAR ET TAF INFORMATION
METAR FOR ELLX
ADDS - METARS form results

(1356 UTC 20 September 2021)
Data provider http://aviationweather.gov/metar/data/
 
METAR text: ELLX 201350Z 36006KT 290V020 9999 FEW037TCU BKN054 18/10 Q1019 NOSIG
Conditions at: ELLX (LUXEMBOURG (AUT), LU) observed 1350 UTC 20 September 2021
Temperature: 18.0°C (64°F)
Dewpoint: 10.0°C (50°F) [RH = 59%]
Pressure (altimeter): 30.09 inches Hg (1019.0 mb)
Winds: from the N (360 degrees) at 7 MPH (6 knots; 3.1 m/s)
Visibility: 6 or more miles (10+ km)
Ceiling: 5400 feet AGL
Clouds: few clouds at 3700 feet AGL
broken clouds at 5400 feet AGL
Weather: no significant weather observed at this time

METAR text: ELLX 201320Z 02007KT 300V110 9999 FEW033TCU SCT050 18/09 Q1019 NOSIG
Conditions at: ELLX (LUXEMBOURG (AUT), LU) observed 1320 UTC 20 September 2021
Temperature: 18.0°C (64°F)
Dewpoint: 9.0°C (48°F) [RH = 56%]
Pressure (altimeter): 30.09 inches Hg (1019.0 mb)
Winds: from the NNE (20 degrees) at 8 MPH (7 knots; 3.6 m/s)
Visibility: 6 or more miles (10+ km)
Ceiling: at least 12,000 feet AGL
Clouds: few clouds at 3300 feet AGL
scattered clouds at 5000 feet AGL
Weather: no significant weather observed at this time

Forecast for: ELLX (LUXEMBOURG (AUT), LU)
Text: TAF ELLX 201100Z 2012/2118 07007KT 9999 FEW030
Forecast period: 1200 UTC 20 September 2021 to 1800 UTC 21 September 2021
Forecast type: FROM: standard forecast or significant change
Winds: from the ENE (70 degrees) at 8 MPH (7 knots; 3.6 m/s)
Visibility: 6 or more miles (10+ km)
Ceiling: at least 12,000 feet AGL
Clouds: few clouds at 3000 feet AGL
Weather: no significant weather forecast for this period
Text: PROB30
Forecast period: 1200 to 1500 UTC 20 September 2021
Forecast type: TEMPORARY: The following changes expected for less than half the time period
Visibility: missing
Ceiling: at least 12,000 feet AGL
Clouds: few clouds at 3000 feet AGL
Weather: no significant weather forecast for this period

 AÉROPORT DE AÉROPORT

 INFORMATIONS DE PISTE
Piste 06 Longueur de la piste 13123 ft Largeur de la piste 197 ft
Élévation de la piste 1158 ft Seuil de la piste déplacés 0 ft Runway heading 60
Piste 24 Longueur de la piste 13123 ft Largeur de la piste 197 ft
Élévation de la piste 1214 ft Seuil de la piste déplacés 0 ft Runway heading 240

 AÉROPORT FRÉQUENCES
Type APP Nom APP Féquence 118.9 MHZ
Type ATIS Nom ATIS Féquence 135.55 MHZ
Type TWR Nom TWR Féquence 118.1 MHZ

 SIDA DE NAVIGATION
Type NDB Nom Luxembourg Féquence 369 KHZ
Type VOR-DME Nom Luxembourg Féquence 112250 KHZ
Type NDB Nom Luxembourg Féquence 346 KHZ

Nos Partenaires